sensor_id;sensor_type;location;lat;lon;timestamp;P1;durP1;ratioP1;P2;durP2;ratioP2
73168;SDS011;61379;59.732;30.468;2024-01-25T00:00:18;10.25;;;9.45;;
73168;SDS011;61379;59.732;30.468;2024-01-25T00:02:45;8.95;;;8.10;;
73168;SDS011;61379;59.732;30.468;2024-01-25T00:05:12;9.05;;;8.25;;
73168;SDS011;61379;59.732;30.468;2024-01-25T00:07:45;9.82;;;9.02;;
73168;SDS011;61379;59.732;30.468;2024-01-25T00:10:12;11.07;;;9.85;;
73168;SDS011;61379;59.732;30.468;2024-01-25T00:12:40;9.45;;;8.52;;
73168;SDS011;61379;59.732;30.468;2024-01-25T00:15:08;9.07;;;8.18;;
73168;SDS011;61379;59.732;30.468;2024-01-25T00:17:35;9.43;;;8.50;;
73168;SDS011;61379;59.732;30.468;2024-01-25T00:20:03;9.40;;;8.57;;
73168;SDS011;61379;59.732;30.468;2024-01-25T00:22:32;10.82;;;8.40;;
73168;SDS011;61379;59.732;30.468;2024-01-25T00:24:59;9.00;;;8.40;;
73168;SDS011;61379;59.732;30.468;2024-01-25T00:27:26;8.43;;;7.72;;
73168;SDS011;61379;59.732;30.468;2024-01-25T00:29:53;10.45;;;9.00;;
73168;SDS011;61379;59.732;30.468;2024-01-25T00:32:21;9.50;;;8.68;;
73168;SDS011;61379;59.732;30.468;2024-01-25T00:34:48;9.68;;;8.98;;
73168;SDS011;61379;59.732;30.468;2024-01-25T00:37:15;9.30;;;8.55;;
73168;SDS011;61379;59.732;30.468;2024-01-25T00:39:42;9.60;;;8.70;;
73168;SDS011;61379;59.732;30.468;2024-01-25T00:42:11;9.30;;;8.45;;
73168;SDS011;61379;59.732;30.468;2024-01-25T00:44:39;9.05;;;8.35;;
73168;SDS011;61379;59.732;30.468;2024-01-25T00:47:06;9.18;;;8.35;;
73168;SDS011;61379;59.732;30.468;2024-01-25T00:49:35;9.02;;;7.97;;
73168;SDS011;61379;59.732;30.468;2024-01-25T00:52:02;9.63;;;8.65;;
73168;SDS011;61379;59.732;30.468;2024-01-25T00:54:29;9.38;;;8.60;;
73168;SDS011;61379;59.732;30.468;2024-01-25T00:56:57;9.07;;;8.27;;
73168;SDS011;61379;59.732;30.468;2024-01-25T00:59:24;8.73;;;8.02;;
73168;SDS011;61379;59.732;30.468;2024-01-25T01:01:52;9.73;;;8.82;;
73168;SDS011;61379;59.732;30.468;2024-01-25T01:04:19;9.52;;;8.82;;
73168;SDS011;61379;59.732;30.468;2024-01-25T01:06:48;9.88;;;9.00;;
73168;SDS011;61379;59.732;30.468;2024-01-25T01:09:15;9.15;;;8.35;;
73168;SDS011;61379;59.732;30.468;2024-01-25T01:11:43;8.80;;;8.20;;
73168;SDS011;61379;59.732;30.468;2024-01-25T01:14:10;10.63;;;9.73;;
73168;SDS011;61379;59.732;30.468;2024-01-25T01:16:37;10.50;;;9.48;;
73168;SDS011;61379;59.732;30.468;2024-01-25T01:19:04;8.77;;;8.05;;
73168;SDS011;61379;59.732;30.468;2024-01-25T01:21:33;8.43;;;7.63;;
73168;SDS011;61379;59.732;30.468;2024-01-25T01:24:01;8.73;;;8.02;;
73168;SDS011;61379;59.732;30.468;2024-01-25T01:26:28;8.82;;;8.13;;
73168;SDS011;61379;59.732;30.468;2024-01-25T01:28:55;8.77;;;8.18;;
73168;SDS011;61379;59.732;30.468;2024-01-25T01:31:22;8.60;;;7.90;;
73168;SDS011;61379;59.732;30.468;2024-01-25T01:33:49;8.07;;;7.53;;
73168;SDS011;61379;59.732;30.468;2024-01-25T01:36:16;9.02;;;8.38;;
73168;SDS011;61379;59.732;30.468;2024-01-25T01:38:43;8.93;;;8.23;;
73168;SDS011;61379;59.732;30.468;2024-01-25T01:41:11;10.20;;;9.40;;
73168;SDS011;61379;59.732;30.468;2024-01-25T01:43:38;10.90;;;10.10;;
73168;SDS011;61379;59.732;30.468;2024-01-25T01:46:19;11.15;;;10.35;;
73168;SDS011;61379;59.732;30.468;2024-01-25T01:48:47;10.48;;;9.77;;
73168;SDS011;61379;59.732;30.468;2024-01-25T01:51:14;11.38;;;10.32;;
73168;SDS011;61379;59.732;30.468;2024-01-25T01:53:41;10.90;;;10.10;;
73168;SDS011;61379;59.732;30.468;2024-01-25T01:56:08;10.35;;;9.55;;
73168;SDS011;61379;59.732;30.468;2024-01-25T01:58:37;10.35;;;9.68;;
73168;SDS011;61379;59.732;30.468;2024-01-25T02:01:05;10.43;;;9.38;;
73168;SDS011;61379;59.732;30.468;2024-01-25T02:03:31;10.88;;;10.02;;
73168;SDS011;61379;59.732;30.468;2024-01-25T02:05:59;10.95;;;10.02;;
73168;SDS011;61379;59.732;30.468;2024-01-25T02:08:28;10.50;;;9.80;;
73168;SDS011;61379;59.732;30.468;2024-01-25T02:10:55;11.20;;;10.35;;
73168;SDS011;61379;59.732;30.468;2024-01-25T02:13:22;10.70;;;10.00;;
73168;SDS011;61379;59.732;30.468;2024-01-25T02:15:50;10.63;;;9.93;;
73168;SDS011;61379;59.732;30.468;2024-01-25T02:18:37;10.93;;;10.13;;
73168;SDS011;61379;59.732;30.468;2024-01-25T02:21:04;10.93;;;10.05;;
73168;SDS011;61379;59.732;30.468;2024-01-25T02:23:32;10.93;;;9.90;;
73168;SDS011;61379;59.732;30.468;2024-01-25T02:25:59;10.98;;;10.02;;
73168;SDS011;61379;59.732;30.468;2024-01-25T02:28:26;10.55;;;9.75;;
73168;SDS011;61379;59.732;30.468;2024-01-25T02:30:53;10.77;;;10.07;;
73168;SDS011;61379;59.732;30.468;2024-01-25T02:33:20;10.68;;;9.88;;
73168;SDS011;61379;59.732;30.468;2024-01-25T02:35:47;11.48;;;10.57;;
73168;SDS011;61379;59.732;30.468;2024-01-25T02:38:14;11.60;;;10.80;;
73168;SDS011;61379;59.732;30.468;2024-01-25T02:40:42;11.23;;;10.40;;
73168;SDS011;61379;59.732;30.468;2024-01-25T02:43:09;11.15;;;10.32;;
73168;SDS011;61379;59.732;30.468;2024-01-25T02:45:36;11.45;;;10.65;;
73168;SDS011;61379;59.732;30.468;2024-01-25T02:48:04;11.10;;;10.30;;
73168;SDS011;61379;59.732;30.468;2024-01-25T02:50:31;11.10;;;10.40;;
73168;SDS011;61379;59.732;30.468;2024-01-25T02:52:58;11.02;;;10.23;;
73168;SDS011;61379;59.732;30.468;2024-01-25T02:55:25;11.57;;;10.77;;
73168;SDS011;61379;59.732;30.468;2024-01-25T02:57:54;11.40;;;10.70;;
73168;SDS011;61379;59.732;30.468;2024-01-25T03:00:21;12.15;;;11.15;;
73168;SDS011;61379;59.732;30.468;2024-01-25T03:02:48;11.18;;;10.35;;
73168;SDS011;61379;59.732;30.468;2024-01-25T03:05:15;11.32;;;10.43;;
73168;SDS011;61379;59.732;30.468;2024-01-25T03:07:42;11.55;;;10.75;;
73168;SDS011;61379;59.732;30.468;2024-01-25T03:10:09;12.05;;;11.27;;
73168;SDS011;61379;59.732;30.468;2024-01-25T03:12:36;11.77;;;10.98;;
73168;SDS011;61379;59.732;30.468;2024-01-25T03:15:05;10.98;;;10.27;;
73168;SDS011;61379;59.732;30.468;2024-01-25T03:17:32;11.40;;;10.70;;
73168;SDS011;61379;59.732;30.468;2024-01-25T03:19:59;12.02;;;11.02;;
73168;SDS011;61379;59.732;30.468;2024-01-25T03:22:26;11.82;;;11.02;;
73168;SDS011;61379;59.732;30.468;2024-01-25T03:24:53;11.82;;;11.02;;
73168;SDS011;61379;59.732;30.468;2024-01-25T03:27:20;20.90;;;14.98;;
73168;SDS011;61379;59.732;30.468;2024-01-25T03:29:46;12.02;;;11.20;;
73168;SDS011;61379;59.732;30.468;2024-01-25T03:32:15;11.95;;;11.23;;
73168;SDS011;61379;59.732;30.468;2024-01-25T03:34:42;12.07;;;11.27;;
73168;SDS011;61379;59.732;30.468;2024-01-25T03:37:09;11.88;;;11.10;;
73168;SDS011;61379;59.732;30.468;2024-01-25T03:39:36;12.10;;;11.30;;
73168;SDS011;61379;59.732;30.468;2024-01-25T03:42:03;11.30;;;10.50;;
73168;SDS011;61379;59.732;30.468;2024-01-25T03:44:30;11.18;;;10.48;;
73168;SDS011;61379;59.732;30.468;2024-01-25T03:46:56;12.25;;;11.38;;
73168;SDS011;61379;59.732;30.468;2024-01-25T03:49:25;11.70;;;10.85;;
73168;SDS011;61379;59.732;30.468;2024-01-25T03:51:52;11.77;;;10.98;;
73168;SDS011;61379;59.732;30.468;2024-01-25T03:54:19;11.80;;;11.00;;
73168;SDS011;61379;59.732;30.468;2024-01-25T03:56:46;11.27;;;10.48;;
73168;SDS011;61379;59.732;30.468;2024-01-25T03:59:13;11.00;;;10.20;;
73168;SDS011;61379;59.732;30.468;2024-01-25T04:01:43;10.88;;;9.88;;
73168;SDS011;61379;59.732;30.468;2024-01-25T04:04:10;11.43;;;10.32;;
73168;SDS011;61379;59.732;30.468;2024-01-25T04:06:40;11.13;;;10.43;;
73168;SDS011;61379;59.732;30.468;2024-01-25T04:09:07;12.73;;;11.63;;
73168;SDS011;61379;59.732;30.468;2024-01-25T04:11:34;11.05;;;10.35;;
73168;SDS011;61379;59.732;30.468;2024-01-25T04:14:01;11.70;;;10.90;;
73168;SDS011;61379;59.732;30.468;2024-01-25T04:16:28;12.13;;;11.23;;
73168;SDS011;61379;59.732;30.468;2024-01-25T04:18:55;11.90;;;10.85;;
73168;SDS011;61379;59.732;30.468;2024-01-25T04:21:22;11.82;;;11.00;;
73168;SDS011;61379;59.732;30.468;2024-01-25T04:23:50;11.00;;;10.20;;
73168;SDS011;61379;59.732;30.468;2024-01-25T04:26:17;11.82;;;10.88;;
73168;SDS011;61379;59.732;30.468;2024-01-25T04:28:44;11.35;;;10.57;;
73168;SDS011;61379;59.732;30.468;2024-01-25T04:31:11;12.32;;;11.43;;
73168;SDS011;61379;59.732;30.468;2024-01-25T04:33:38;12.48;;;11.48;;
73168;SDS011;61379;59.732;30.468;2024-01-25T04:36:05;11.82;;;10.82;;
73168;SDS011;61379;59.732;30.468;2024-01-25T04:38:32;11.98;;;10.85;;
73168;SDS011;61379;59.732;30.468;2024-01-25T04:41:01;11.90;;;11.00;;
73168;SDS011;61379;59.732;30.468;2024-01-25T04:43:28;11.38;;;10.55;;
73168;SDS011;61379;59.732;30.468;2024-01-25T04:45:55;11.75;;;10.88;;
73168;SDS011;61379;59.732;30.468;2024-01-25T04:48:21;11.48;;;10.43;;
73168;SDS011;61379;59.732;30.468;2024-01-25T04:50:48;11.73;;;10.65;;
73168;SDS011;61379;59.732;30.468;2024-01-25T04:53:15;11.73;;;10.73;;
73168;SDS011;61379;59.732;30.468;2024-01-25T04:55:42;11.57;;;10.68;;
73168;SDS011;61379;59.732;30.468;2024-01-25T04:58:11;11.98;;;10.88;;
73168;SDS011;61379;59.732;30.468;2024-01-25T05:00:37;10.85;;;10.05;;
73168;SDS011;61379;59.732;30.468;2024-01-25T05:03:05;11.82;;;10.93;;
73168;SDS011;61379;59.732;30.468;2024-01-25T05:05:32;12.10;;;11.02;;
73168;SDS011;61379;59.732;30.468;2024-01-25T05:07:59;11.98;;;10.98;;
73168;SDS011;61379;59.732;30.468;2024-01-25T05:10:26;12.63;;;11.48;;
73168;SDS011;61379;59.732;30.468;2024-01-25T05:12:53;11.20;;;10.30;;
73168;SDS011;61379;59.732;30.468;2024-01-25T05:15:21;13.25;;;12.07;;
73168;SDS011;61379;59.732;30.468;2024-01-25T05:17:48;12.43;;;11.27;;
73168;SDS011;61379;59.732;30.468;2024-01-25T05:20:15;13.35;;;12.15;;
73168;SDS011;61379;59.732;30.468;2024-01-25T05:22:43;12.93;;;11.65;;
73168;SDS011;61379;59.732;30.468;2024-01-25T05:25:11;13.60;;;12.35;;
73168;SDS011;61379;59.732;30.468;2024-01-25T05:27:38;12.38;;;11.18;;
73168;SDS011;61379;59.732;30.468;2024-01-25T05:30:05;13.35;;;12.05;;
73168;SDS011;61379;59.732;30.468;2024-01-25T05:32:34;13.57;;;11.48;;
73168;SDS011;61379;59.732;30.468;2024-01-25T05:35:01;12.35;;;11.35;;
73168;SDS011;61379;59.732;30.468;2024-01-25T05:37:28;12.18;;;11.18;;
73168;SDS011;61379;59.732;30.468;2024-01-25T05:39:55;13.07;;;11.73;;
73168;SDS011;61379;59.732;30.468;2024-01-25T05:42:22;12.20;;;11.00;;
73168;SDS011;61379;59.732;30.468;2024-01-25T05:44:49;14.23;;;12.65;;
73168;SDS011;61379;59.732;30.468;2024-01-25T05:47:16;14.75;;;13.05;;
73168;SDS011;61379;59.732;30.468;2024-01-25T05:49:44;16.17;;;12.40;;
73168;SDS011;61379;59.732;30.468;2024-01-25T05:52:11;13.10;;;11.82;;
73168;SDS011;61379;59.732;30.468;2024-01-25T05:54:38;12.98;;;11.77;;
73168;SDS011;61379;59.732;30.468;2024-01-25T05:57:05;14.13;;;12.65;;
73168;SDS011;61379;59.732;30.468;2024-01-25T05:59:32;14.07;;;12.57;;
73168;SDS011;61379;59.732;30.468;2024-01-25T06:01:59;15.68;;;14.05;;
73168;SDS011;61379;59.732;30.468;2024-01-25T06:04:26;18.80;;;13.70;;
73168;SDS011;61379;59.732;30.468;2024-01-25T06:06:54;25.35;;;16.88;;
73168;SDS011;61379;59.732;30.468;2024-01-25T06:09:21;26.75;;;15.10;;
73168;SDS011;61379;59.732;30.468;2024-01-25T06:11:48;26.02;;;16.65;;
73168;SDS011;61379;59.732;30.468;2024-01-25T06:14:15;31.27;;;16.65;;
73168;SDS011;61379;59.732;30.468;2024-01-25T06:16:42;26.15;;;17.52;;
73168;SDS011;61379;59.732;30.468;2024-01-25T06:19:10;30.50;;;16.30;;
73168;SDS011;61379;59.732;30.468;2024-01-25T06:21:37;21.65;;;15.25;;
73168;SDS011;61379;59.732;30.468;2024-01-25T06:24:06;25.60;;;15.68;;
73168;SDS011;61379;59.732;30.468;2024-01-25T06:26:33;20.60;;;14.25;;
73168;SDS011;61379;59.732;30.468;2024-01-25T06:29:00;20.27;;;15.27;;
73168;SDS011;61379;59.732;30.468;2024-01-25T06:31:27;21.60;;;15.52;;
73168;SDS011;61379;59.732;30.468;2024-01-25T06:33:54;21.58;;;15.10;;
73168;SDS011;61379;59.732;30.468;2024-01-25T06:36:21;21.60;;;16.15;;
73168;SDS011;61379;59.732;30.468;2024-01-25T06:38:48;17.42;;;15.68;;
73168;SDS011;61379;59.732;30.468;2024-01-25T06:41:16;18.02;;;15.80;;
73168;SDS011;61379;59.732;30.468;2024-01-25T06:43:43;18.58;;;15.80;;
73168;SDS011;61379;59.732;30.468;2024-01-25T06:46:10;17.90;;;16.08;;
73168;SDS011;61379;59.732;30.468;2024-01-25T06:48:37;20.10;;;14.65;;
73168;SDS011;61379;59.732;30.468;2024-01-25T06:51:04;18.88;;;15.13;;
73168;SDS011;61379;59.732;30.468;2024-01-25T06:53:31;23.13;;;16.50;;
73168;SDS011;61379;59.732;30.468;2024-01-25T06:55:58;21.30;;;16.35;;
73168;SDS011;61379;59.732;30.468;2024-01-25T06:58:26;18.77;;;15.10;;
73168;SDS011;61379;59.732;30.468;2024-01-25T07:00:53;16.35;;;14.60;;
73168;SDS011;61379;59.732;30.468;2024-01-25T07:03:20;17.95;;;14.73;;
73168;SDS011;61379;59.732;30.468;2024-01-25T07:05:47;21.67;;;17.20;;
73168;SDS011;61379;59.732;30.468;2024-01-25T07:08:14;21.60;;;14.98;;
73168;SDS011;61379;59.732;30.468;2024-01-25T07:10:41;17.58;;;15.52;;
73168;SDS011;61379;59.732;30.468;2024-01-25T07:13:08;19.95;;;15.25;;
73168;SDS011;61379;59.732;30.468;2024-01-25T07:15:37;23.50;;;15.80;;
73168;SDS011;61379;59.732;30.468;2024-01-25T07:18:04;17.42;;;15.40;;
73168;SDS011;61379;59.732;30.468;2024-01-25T07:20:31;19.42;;;15.70;;
73168;SDS011;61379;59.732;30.468;2024-01-25T07:22:58;21.33;;;16.42;;
73168;SDS011;61379;59.732;30.468;2024-01-25T07:25:25;22.00;;;15.73;;
73168;SDS011;61379;59.732;30.468;2024-01-25T07:27:52;21.75;;;14.65;;
73168;SDS011;61379;59.732;30.468;2024-01-25T07:30:19;18.88;;;14.50;;
73168;SDS011;61379;59.732;30.468;2024-01-25T07:32:47;20.73;;;15.45;;
73168;SDS011;61379;59.732;30.468;2024-01-25T07:35:15;17.50;;;14.45;;
73168;SDS011;61379;59.732;30.468;2024-01-25T07:37:42;22.35;;;15.77;;
73168;SDS011;61379;59.732;30.468;2024-01-25T07:40:10;19.92;;;14.35;;
73168;SDS011;61379;59.732;30.468;2024-01-25T07:42:37;25.52;;;14.77;;
73168;SDS011;61379;59.732;30.468;2024-01-25T07:45:04;16.88;;;13.95;;
73168;SDS011;61379;59.732;30.468;2024-01-25T07:47:31;17.35;;;14.38;;
73168;SDS011;61379;59.732;30.468;2024-01-25T07:50:00;16.40;;;13.68;;
73168;SDS011;61379;59.732;30.468;2024-01-25T07:52:27;19.98;;;15.68;;
73168;SDS011;61379;59.732;30.468;2024-01-25T07:54:54;16.67;;;14.23;;
73168;SDS011;61379;59.732;30.468;2024-01-25T07:57:21;14.88;;;12.98;;
73168;SDS011;61379;59.732;30.468;2024-01-25T07:59:48;20.90;;;13.52;;
73168;SDS011;61379;59.732;30.468;2024-01-25T08:02:15;14.05;;;12.63;;
73168;SDS011;61379;59.732;30.468;2024-01-25T08:04:42;13.88;;;12.57;;
73168;SDS011;61379;59.732;30.468;2024-01-25T08:07:10;13.48;;;12.13;;
73168;SDS011;61379;59.732;30.468;2024-01-25T08:09:37;16.13;;;11.95;;
73168;SDS011;61379;59.732;30.468;2024-01-25T08:12:04;12.95;;;11.43;;
73168;SDS011;61379;59.732;30.468;2024-01-25T08:14:31;12.77;;;11.73;;
73168;SDS011;61379;59.732;30.468;2024-01-25T08:16:58;13.30;;;12.10;;
73168;SDS011;61379;59.732;30.468;2024-01-25T08:19:25;11.70;;;10.73;;
73168;SDS011;61379;59.732;30.468;2024-01-25T08:21:52;12.27;;;11.23;;
73168;SDS011;61379;59.732;30.468;2024-01-25T08:24:21;12.57;;;10.85;;
73168;SDS011;61379;59.732;30.468;2024-01-25T08:26:47;12.02;;;11.02;;
73168;SDS011;61379;59.732;30.468;2024-01-25T08:29:14;13.32;;;12.13;;
73168;SDS011;61379;59.732;30.468;2024-01-25T08:31:41;11.82;;;10.63;;
73168;SDS011;61379;59.732;30.468;2024-01-25T08:34:08;17.45;;;11.00;;
73168;SDS011;61379;59.732;30.468;2024-01-25T08:36:35;11.98;;;10.88;;
73168;SDS011;61379;59.732;30.468;2024-01-25T08:39:02;12.45;;;11.23;;
73168;SDS011;61379;59.732;30.468;2024-01-25T08:41:31;11.95;;;10.95;;
73168;SDS011;61379;59.732;30.468;2024-01-25T08:43:57;15.30;;;12.05;;
73168;SDS011;61379;59.732;30.468;2024-01-25T08:46:24;13.90;;;12.27;;
73168;SDS011;61379;59.732;30.468;2024-01-25T08:48:51;14.10;;;12.45;;
73168;SDS011;61379;59.732;30.468;2024-01-25T08:51:18;14.70;;;12.00;;
73168;SDS011;61379;59.732;30.468;2024-01-25T08:53:45;13.27;;;11.98;;
73168;SDS011;61379;59.732;30.468;2024-01-25T08:56:12;13.07;;;11.77;;
73168;SDS011;61379;59.732;30.468;2024-01-25T08:58:41;12.73;;;11.63;;
73168;SDS011;61379;59.732;30.468;2024-01-25T09:01:08;14.65;;;13.10;;
73168;SDS011;61379;59.732;30.468;2024-01-25T09:03:35;13.20;;;11.90;;
73168;SDS011;61379;59.732;30.468;2024-01-25T09:06:03;13.45;;;12.00;;
73168;SDS011;61379;59.732;30.468;2024-01-25T09:08:31;12.50;;;11.25;;
73168;SDS011;61379;59.732;30.468;2024-01-25T09:10:58;12.02;;;10.88;;
73168;SDS011;61379;59.732;30.468;2024-01-25T09:13:25;12.05;;;10.98;;
73168;SDS011;61379;59.732;30.468;2024-01-25T09:15:53;12.48;;;11.27;;
73168;SDS011;61379;59.732;30.468;2024-01-25T09:18:20;13.00;;;11.70;;
73168;SDS011;61379;59.732;30.468;2024-01-25T09:20:47;12.98;;;11.57;;
73168;SDS011;61379;59.732;30.468;2024-01-25T09:23:14;15.50;;;11.90;;
73168;SDS011;61379;59.732;30.468;2024-01-25T09:25:42;14.20;;;10.98;;
73168;SDS011;61379;59.732;30.468;2024-01-25T09:28:10;13.75;;;12.18;;
73168;SDS011;61379;59.732;30.468;2024-01-25T09:30:38;12.52;;;11.32;;
73168;SDS011;61379;59.732;30.468;2024-01-25T09:33:07;12.70;;;11.27;;
73168;SDS011;61379;59.732;30.468;2024-01-25T09:35:34;13.07;;;11.10;;
73168;SDS011;61379;59.732;30.468;2024-01-25T09:38:01;13.43;;;12.13;;
73168;SDS011;61379;59.732;30.468;2024-01-25T09:40:28;12.63;;;11.60;;
73168;SDS011;61379;59.732;30.468;2024-01-25T09:42:55;13.80;;;11.77;;
73168;SDS011;61379;59.732;30.468;2024-01-25T09:45:22;13.52;;;12.07;;
73168;SDS011;61379;59.732;30.468;2024-01-25T09:47:51;12.75;;;11.57;;
73168;SDS011;61379;59.732;30.468;2024-01-25T09:50:19;11.45;;;10.63;;
73168;SDS011;61379;59.732;30.468;2024-01-25T09:52:49;13.23;;;12.02;;
73168;SDS011;61379;59.732;30.468;2024-01-25T09:55:20;13.02;;;11.82;;
73168;SDS011;61379;59.732;30.468;2024-01-25T09:57:49;12.73;;;11.55;;
73168;SDS011;61379;59.732;30.468;2024-01-25T10:02:47;12.05;;;10.82;;
73168;SDS011;61379;59.732;30.468;2024-01-25T10:05:14;12.10;;;11.02;;
73168;SDS011;61379;59.732;30.468;2024-01-25T10:07:42;13.85;;;12.40;;
73168;SDS011;61379;59.732;30.468;2024-01-25T10:10:10;11.98;;;10.93;;
73168;SDS011;61379;59.732;30.468;2024-01-25T10:12:37;13.13;;;11.82;;
73168;SDS011;61379;59.732;30.468;2024-01-25T10:15:05;13.15;;;11.82;;
73168;SDS011;61379;59.732;30.468;2024-01-25T10:17:32;12.15;;;11.05;;
73168;SDS011;61379;59.732;30.468;2024-01-25T10:19:59;13.15;;;11.95;;
73168;SDS011;61379;59.732;30.468;2024-01-25T10:22:27;15.82;;;12.35;;
73168;SDS011;61379;59.732;30.468;2024-01-25T10:24:55;13.90;;;12.48;;
73168;SDS011;61379;59.732;30.468;2024-01-25T10:27:22;15.20;;;12.50;;
73168;SDS011;61379;59.732;30.468;2024-01-25T10:29:49;11.93;;;10.88;;
73168;SDS011;61379;59.732;30.468;2024-01-25T10:32:17;12.13;;;11.02;;
73168;SDS011;61379;59.732;30.468;2024-01-25T10:34:44;11.90;;;10.73;;
73168;SDS011;61379;59.732;30.468;2024-01-25T10:37:13;14.00;;;12.55;;
73168;SDS011;61379;59.732;30.468;2024-01-25T10:39:40;12.10;;;11.13;;
73168;SDS011;61379;59.732;30.468;2024-01-25T10:42:09;12.50;;;11.27;;
73168;SDS011;61379;59.732;30.468;2024-01-25T10:44:36;13.27;;;12.05;;
73168;SDS011;61379;59.732;30.468;2024-01-25T10:47:03;13.20;;;11.93;;
73168;SDS011;61379;59.732;30.468;2024-01-25T10:49:32;14.02;;;12.57;;
73168;SDS011;61379;59.732;30.468;2024-01-25T10:51:59;13.30;;;12.15;;
73168;SDS011;61379;59.732;30.468;2024-01-25T10:54:26;12.55;;;11.35;;
73168;SDS011;61379;59.732;30.468;2024-01-25T10:56:54;12.32;;;11.23;;
73168;SDS011;61379;59.732;30.468;2024-01-25T10:59:22;13.38;;;12.02;;
73168;SDS011;61379;59.732;30.468;2024-01-25T11:01:50;12.98;;;11.68;;
73168;SDS011;61379;59.732;30.468;2024-01-25T11:04:18;12.90;;;11.80;;
73168;SDS011;61379;59.732;30.468;2024-01-25T11:06:45;12.90;;;11.77;;
73168;SDS011;61379;59.732;30.468;2024-01-25T11:09:16;13.70;;;12.45;;
73168;SDS011;61379;59.732;30.468;2024-01-25T11:11:43;14.60;;;11.23;;
73168;SDS011;61379;59.732;30.468;2024-01-25T11:14:11;12.65;;;11.65;;
73168;SDS011;61379;59.732;30.468;2024-01-25T11:16:40;13.88;;;12.52;;
73168;SDS011;61379;59.732;30.468;2024-01-25T11:19:15;14.30;;;13.10;;
73168;SDS011;61379;59.732;30.468;2024-01-25T11:21:43;11.52;;;10.52;;
73168;SDS011;61379;59.732;30.468;2024-01-25T11:24:13;13.18;;;11.90;;
73168;SDS011;61379;59.732;30.468;2024-01-25T11:26:40;12.57;;;11.43;;
73168;SDS011;61379;59.732;30.468;2024-01-25T11:29:07;13.32;;;12.23;;
73168;SDS011;61379;59.732;30.468;2024-01-25T11:31:34;15.82;;;11.95;;
73168;SDS011;61379;59.732;30.468;2024-01-25T11:34:03;13.85;;;11.10;;
73168;SDS011;61379;59.732;30.468;2024-01-25T11:36:30;12.15;;;11.07;;
73168;SDS011;61379;59.732;30.468;2024-01-25T11:38:58;13.95;;;12.35;;
73168;SDS011;61379;59.732;30.468;2024-01-25T11:41:25;11.80;;;10.60;;
73168;SDS011;61379;59.732;30.468;2024-01-25T11:43:55;12.57;;;11.40;;
73168;SDS011;61379;59.732;30.468;2024-01-25T11:46:23;12.65;;;11.55;;
73168;SDS011;61379;59.732;30.468;2024-01-25T11:48:50;11.77;;;10.65;;
73168;SDS011;61379;59.732;30.468;2024-01-25T11:51:18;11.15;;;10.15;;
73168;SDS011;61379;59.732;30.468;2024-01-25T11:53:45;12.18;;;10.52;;
73168;SDS011;61379;59.732;30.468;2024-01-25T11:56:13;11.40;;;10.40;;
73168;SDS011;61379;59.732;30.468;2024-01-25T12:01:09;10.52;;;9.63;;
73168;SDS011;61379;59.732;30.468;2024-01-25T12:03:36;10.98;;;9.98;;
73168;SDS011;61379;59.732;30.468;2024-01-25T12:06:04;11.05;;;10.05;;
73168;SDS011;61379;59.732;30.468;2024-01-25T12:08:33;11.77;;;10.55;;
73168;SDS011;61379;59.732;30.468;2024-01-25T12:11:03;11.77;;;10.65;;
73168;SDS011;61379;59.732;30.468;2024-01-25T12:13:32;11.27;;;10.07;;
73168;SDS011;61379;59.732;30.468;2024-01-25T12:16:00;10.00;;;9.25;;
73168;SDS011;61379;59.732;30.468;2024-01-25T12:18:28;11.15;;;10.25;;
73168;SDS011;61379;59.732;30.468;2024-01-25T12:20:57;12.15;;;10.90;;
73168;SDS011;61379;59.732;30.468;2024-01-25T12:23:29;11.73;;;10.68;;
73168;SDS011;61379;59.732;30.468;2024-01-25T12:25:59;11.75;;;10.68;;
73168;SDS011;61379;59.732;30.468;2024-01-25T12:28:27;12.00;;;10.98;;
73168;SDS011;61379;59.732;30.468;2024-01-25T12:30:54;11.77;;;10.80;;
73168;SDS011;61379;59.732;30.468;2024-01-25T12:33:21;10.05;;;9.25;;
73168;SDS011;61379;59.732;30.468;2024-01-25T12:35:48;11.73;;;10.73;;
73168;SDS011;61379;59.732;30.468;2024-01-25T12:38:15;11.93;;;11.05;;
73168;SDS011;61379;59.732;30.468;2024-01-25T12:40:43;11.23;;;10.32;;
73168;SDS011;61379;59.732;30.468;2024-01-25T12:43:11;12.40;;;11.27;;
73168;SDS011;61379;59.732;30.468;2024-01-25T12:45:38;11.30;;;10.35;;
73168;SDS011;61379;59.732;30.468;2024-01-25T12:48:05;11.48;;;10.43;;
73168;SDS011;61379;59.732;30.468;2024-01-25T12:50:34;12.07;;;10.98;;
73168;SDS011;61379;59.732;30.468;2024-01-25T12:53:01;11.27;;;10.50;;
73168;SDS011;61379;59.732;30.468;2024-01-25T12:55:28;11.98;;;11.07;;
73168;SDS011;61379;59.732;30.468;2024-01-25T12:57:55;10.65;;;9.75;;
73168;SDS011;61379;59.732;30.468;2024-01-25T13:00:24;11.27;;;10.45;;
73168;SDS011;61379;59.732;30.468;2024-01-25T13:02:51;10.55;;;9.85;;
73168;SDS011;61379;59.732;30.468;2024-01-25T13:05:18;11.98;;;10.88;;
73168;SDS011;61379;59.732;30.468;2024-01-25T13:07:45;13.75;;;11.80;;
73168;SDS011;61379;59.732;30.468;2024-01-25T13:10:13;12.27;;;11.35;;
73168;SDS011;61379;59.732;30.468;2024-01-25T13:12:40;11.80;;;10.75;;
73168;SDS011;61379;59.732;30.468;2024-01-25T13:15:07;11.00;;;10.10;;
73168;SDS011;61379;59.732;30.468;2024-01-25T13:17:35;10.70;;;9.82;;
73168;SDS011;61379;59.732;30.468;2024-01-25T13:20:03;13.18;;;12.18;;
73168;SDS011;61379;59.732;30.468;2024-01-25T13:22:31;11.00;;;10.15;;
73168;SDS011;61379;59.732;30.468;2024-01-25T13:24:58;10.82;;;9.82;;
73168;SDS011;61379;59.732;30.468;2024-01-25T13:27:25;9.70;;;8.82;;
73168;SDS011;61379;59.732;30.468;2024-01-25T13:29:52;11.52;;;10.32;;
73168;SDS011;61379;59.732;30.468;2024-01-25T13:32:19;11.30;;;10.18;;
73168;SDS011;61379;59.732;30.468;2024-01-25T13:34:48;11.23;;;10.20;;
73168;SDS011;61379;59.732;30.468;2024-01-25T13:37:15;10.98;;;9.68;;
73168;SDS011;61379;59.732;30.468;2024-01-25T13:39:42;12.50;;;11.40;;
73168;SDS011;61379;59.732;30.468;2024-01-25T13:42:09;11.25;;;10.43;;
73168;SDS011;61379;59.732;30.468;2024-01-25T13:44:36;10.25;;;9.38;;
73168;SDS011;61379;59.732;30.468;2024-01-25T13:47:04;12.20;;;11.32;;
73168;SDS011;61379;59.732;30.468;2024-01-25T13:49:31;11.98;;;10.80;;
73168;SDS011;61379;59.732;30.468;2024-01-25T13:52:00;10.18;;;9.27;;
73168;SDS011;61379;59.732;30.468;2024-01-25T13:56:54;10.10;;;9.10;;
73168;SDS011;61379;59.732;30.468;2024-01-25T13:59:21;9.60;;;8.80;;
73168;SDS011;61379;59.732;30.468;2024-01-25T14:01:49;10.98;;;9.85;;
73168;SDS011;61379;59.732;30.468;2024-01-25T14:04:16;9.50;;;8.70;;
73168;SDS011;61379;59.732;30.468;2024-01-25T14:06:43;8.80;;;8.07;;
73168;SDS011;61379;59.732;30.468;2024-01-25T14:09:12;10.27;;;9.38;;
73168;SDS011;61379;59.732;30.468;2024-01-25T14:11:39;11.23;;;10.40;;
73168;SDS011;61379;59.732;30.468;2024-01-25T14:14:05;10.40;;;9.40;;
73168;SDS011;61379;59.732;30.468;2024-01-25T14:16:32;10.45;;;9.45;;
73168;SDS011;61379;59.732;30.468;2024-01-25T14:18:59;12.20;;;11.10;;
73168;SDS011;61379;59.732;30.468;2024-01-25T14:21:28;10.32;;;9.45;;